createdAt,value
2017-04-15T00:00:07.266Z,0
2017-04-15T00:01:07.276Z,0
2017-04-15T00:02:07.309Z,0
2017-04-15T00:03:13.270Z,0
2017-04-15T00:04:07.350Z,0
2017-04-15T00:05:07.353Z,0
2017-04-15T00:06:07.370Z,0
2017-04-15T00:07:07.385Z,0
2017-04-15T00:08:07.406Z,0
2017-04-15T00:09:07.421Z,0
2017-04-15T00:10:07.442Z,0
2017-04-15T00:11:07.140Z,0
2017-04-15T00:12:07.484Z,0
2017-04-15T00:13:07.498Z,0
2017-04-15T00:14:07.787Z,0
2017-04-15T00:15:07.538Z,0
2017-04-15T00:16:07.237Z,0
2017-04-15T00:17:07.565Z,0
2017-04-15T00:18:07.587Z,0
2017-04-15T00:19:07.609Z,0
2017-04-15T00:20:07.644Z,0
2017-04-15T00:21:07.331Z,0
2017-04-15T00:22:07.661Z,0
2017-04-15T00:23:07.793Z,0
2017-04-15T00:24:07.699Z,0
2017-04-15T00:25:07.396Z,0
2017-04-15T00:26:07.738Z,0
2017-04-15T00:27:07.434Z,0
2017-04-15T00:28:07.457Z,0
2017-04-15T00:29:07.778Z,0
2017-04-15T00:30:07.799Z,0
2017-04-15T00:31:07.818Z,0
2017-04-15T00:32:07.838Z,0
2017-04-15T00:33:07.852Z,0
2017-04-15T00:34:07.563Z,0
2017-04-15T00:35:07.895Z,0
2017-04-15T00:36:07.930Z,0
2017-04-15T00:37:07.930Z,0
2017-04-15T00:38:07.951Z,0
2017-04-15T00:39:07.963Z,0
2017-04-15T00:40:07.672Z,0
2017-04-15T00:41:07.995Z,0
2017-04-15T00:42:08.177Z,0
2017-04-15T00:43:08.044Z,0
2017-04-15T00:44:08.064Z,0
2017-04-15T00:45:08.195Z,0
2017-04-15T00:46:08.205Z,0
2017-04-15T00:47:08.208Z,0
2017-04-15T00:48:07.881Z,0
2017-04-15T00:49:08.145Z,0
2017-04-15T00:50:08.285Z,0
2017-04-15T00:51:08.295Z,0
2017-04-15T00:52:07.899Z,0
2017-04-15T00:53:08.314Z,0
2017-04-15T00:54:08.344Z,0
2017-04-15T00:55:08.342Z,0
2017-04-15T00:56:07.997Z,0
2017-04-15T00:57:08.360Z,0
2017-04-15T00:58:08.429Z,0
2017-04-15T00:59:08.442Z,0
2017-04-15T01:00:08.034Z,0
2017-04-15T01:01:08.588Z,0
2017-04-15T01:02:08.274Z,0
2017-04-15T01:03:08.299Z,0
2017-04-15T01:04:08.348Z,0
2017-04-15T01:05:08.588Z,0
2017-04-15T01:06:08.601Z,0
2017-04-15T01:07:08.584Z,0
2017-04-15T01:08:08.592Z,0
2017-04-15T01:09:08.886Z,0
2017-04-15T01:10:08.644Z,0
2017-04-15T01:11:08.651Z,0
2017-04-15T01:12:08.345Z,0
2017-04-15T01:13:08.666Z,0
2017-04-15T01:14:08.717Z,0
2017-04-15T01:15:08.711Z,0
2017-04-15T01:16:08.725Z,0
2017-04-15T01:17:08.418Z,0
2017-04-15T01:18:08.782Z,0
2017-04-15T01:19:08.780Z,0
2017-04-15T01:20:08.491Z,0
2017-04-15T01:21:08.793Z,0
2017-04-15T01:22:08.505Z,0
2017-04-15T01:23:08.838Z,0
2017-04-15T01:24:08.833Z,0
2017-04-15T01:25:08.872Z,0
2017-04-15T01:26:08.821Z,0
2017-04-15T01:27:08.820Z,0
2017-04-15T01:28:08.843Z,0
2017-04-15T01:29:08.860Z,0
2017-04-15T01:30:08.875Z,0
2017-04-15T01:31:08.896Z,0
2017-04-15T01:32:08.910Z,0
2017-04-15T01:33:08.928Z,0
2017-04-15T01:34:08.957Z,0
2017-04-15T01:35:08.961Z,0
2017-04-15T01:36:09.036Z,0
2017-04-15T01:37:08.997Z,0
2017-04-15T01:38:09.017Z,0
2017-04-15T01:39:08.726Z,0
2017-04-15T01:40:09.062Z,0
2017-04-15T01:41:09.070Z,0
2017-04-15T01:42:09.091Z,0
2017-04-15T01:43:09.111Z,0
2017-04-15T01:44:08.810Z,0
2017-04-15T01:45:08.969Z,0
2017-04-15T01:46:09.155Z,0
2017-04-15T01:47:09.186Z,0
2017-04-15T01:48:09.206Z,0
2017-04-15T01:49:09.234Z,0
2017-04-15T01:50:09.245Z,0
2017-04-15T01:51:09.254Z,0
2017-04-15T01:52:09.264Z,0
2017-04-15T01:53:09.290Z,0
2017-04-15T01:54:09.305Z,0
2017-04-15T01:55:09.325Z,0
2017-04-15T01:56:09.346Z,0
2017-04-15T01:57:09.360Z,0
2017-04-15T01:58:09.376Z,0
2017-04-15T01:59:09.417Z,0
2017-04-15T02:00:09.432Z,0
2017-04-15T02:01:09.426Z,0
2017-04-15T02:02:09.450Z,0
2017-04-15T02:03:09.467Z,0
2017-04-15T02:04:09.490Z,0
2017-04-15T02:05:09.498Z,0
2017-04-15T02:06:09.517Z,0
2017-04-15T02:07:09.222Z,0
2017-04-15T02:08:09.558Z,0
2017-04-15T02:09:09.577Z,0
2017-04-15T02:10:09.277Z,0
2017-04-15T02:11:09.291Z,0
2017-04-15T02:12:09.624Z,0
2017-04-15T02:13:09.650Z,0
2017-04-15T02:14:09.665Z,0
2017-04-15T02:15:09.684Z,0
2017-04-15T02:16:09.693Z,0
2017-04-15T02:17:09.711Z,0
2017-04-15T02:18:09.731Z,0
2017-04-15T02:19:09.746Z,0
2017-04-15T02:20:09.460Z,0
2017-04-15T02:21:09.786Z,0
2017-04-15T02:22:09.802Z,0
2017-04-15T02:23:09.810Z,0
2017-04-15T02:24:09.847Z,0
2017-04-15T02:25:09.858Z,0
2017-04-15T02:26:09.873Z,0
2017-04-15T02:27:09.890Z,0
2017-04-15T02:28:09.904Z,0
2017-04-15T02:29:09.930Z,0
2017-04-15T02:30:09.938Z,0
2017-04-15T02:31:10.029Z,0
2017-04-15T02:32:09.978Z,0
2017-04-15T02:33:09.996Z,0
2017-04-15T02:34:10.019Z,0
2017-04-15T02:35:10.023Z,0
2017-04-15T02:36:10.052Z,0
2017-04-15T02:37:10.070Z,0
2017-04-15T02:38:10.083Z,0
2017-04-15T02:39:10.109Z,0
2017-04-15T02:40:10.139Z,0
2017-04-15T02:41:10.136Z,0
2017-04-15T02:42:09.842Z,0
2017-04-15T02:43:09.867Z,0
2017-04-15T02:44:10.195Z,0
2017-04-15T02:45:10.213Z,0
2017-04-15T02:46:09.600Z,0
2017-04-15T02:47:10.246Z,0
2017-04-15T02:48:09.953Z,0
2017-04-15T02:49:10.282Z,0
2017-04-15T02:50:10.299Z,0
2017-04-15T02:51:10.317Z,0
2017-04-15T02:52:10.339Z,0
2017-04-15T02:53:10.451Z,0
2017-04-15T02:54:10.458Z,0
2017-04-15T02:55:10.463Z,0
2017-04-15T02:56:10.467Z,0
2017-04-15T02:57:10.475Z,0
2017-04-15T02:58:10.589Z,0
2017-04-15T02:59:10.491Z,0
2017-04-15T03:00:10.499Z,0
2017-04-15T03:01:10.504Z,0
2017-04-15T03:02:10.221Z,0
2017-04-15T03:03:10.534Z,0
2017-04-15T03:04:10.352Z,0
2017-04-15T03:05:10.640Z,0
2017-04-15T03:06:10.645Z,0
2017-04-15T03:07:10.595Z,0
2017-04-15T03:08:10.412Z,0
2017-04-15T03:09:10.743Z,0
2017-04-15T03:10:10.750Z,0
2017-04-15T03:11:10.448Z,0
2017-04-15T03:12:10.455Z,0
2017-04-15T03:13:10.951Z,0
2017-04-15T03:14:10.952Z,0
2017-04-15T03:15:10.967Z,0
2017-04-15T03:16:10.970Z,0
2017-04-15T03:17:10.663Z,0
2017-04-15T03:18:11.012Z,0
2017-04-15T03:19:11.037Z,0
2017-04-15T03:20:11.030Z,0
2017-04-15T03:21:11.032Z,0
2017-04-15T03:22:10.411Z,0
2017-04-15T03:23:11.042Z,0
2017-04-15T03:24:11.053Z,0
2017-04-15T03:25:11.062Z,0
2017-04-15T03:26:11.081Z,0
2017-04-15T03:27:10.759Z,0
2017-04-15T03:28:10.769Z,0
2017-04-15T03:29:11.101Z,0
2017-04-15T03:30:11.063Z,0
2017-04-15T03:31:11.061Z,0
2017-04-15T03:32:11.074Z,0
2017-04-15T03:33:11.141Z,0
2017-04-15T03:34:11.084Z,0
2017-04-15T03:35:11.088Z,0
2017-04-15T03:36:10.795Z,0
2017-04-15T03:37:10.809Z,0
2017-04-15T03:38:11.141Z,0
2017-04-15T03:39:11.184Z,0
2017-04-15T03:40:10.864Z,0
2017-04-15T03:41:11.197Z,0
2017-04-15T03:42:11.214Z,0
2017-04-15T03:43:11.226Z,0
2017-04-15T03:44:11.247Z,0
2017-04-15T03:45:11.272Z,0
2017-04-15T03:46:11.477Z,0
2017-04-15T03:47:11.297Z,0
2017-04-15T03:48:11.335Z,0
2017-04-15T03:49:11.332Z,0
2017-04-15T03:50:11.036Z,0
2017-04-15T03:51:11.362Z,0
2017-04-15T03:52:11.383Z,0
2017-04-15T03:53:11.407Z,0
2017-04-15T03:54:11.417Z,0
2017-04-15T03:55:11.440Z,0
2017-04-15T03:56:11.461Z,0
2017-04-15T03:57:11.475Z,0
2017-04-15T03:58:11.486Z,0
2017-04-15T03:59:11.510Z,4
2017-04-15T04:00:11.526Z,4
2017-04-15T04:01:11.540Z,4
2017-04-15T04:02:11.573Z,0
2017-04-15T04:03:11.594Z,4
2017-04-15T04:04:11.599Z,4
2017-04-15T04:05:11.611Z,8
2017-04-15T04:06:11.630Z,4
2017-04-15T04:07:11.653Z,4
2017-04-15T04:08:11.455Z,8
2017-04-15T04:09:11.684Z,4
2017-04-15T04:10:11.386Z,8
2017-04-15T04:11:11.721Z,12
2017-04-15T04:12:11.780Z,8
2017-04-15T04:13:11.750Z,8
2017-04-15T04:14:11.460Z,12
2017-04-15T04:15:11.787Z,12
2017-04-15T04:16:11.803Z,16
2017-04-15T04:17:11.827Z,16
2017-04-15T04:18:11.843Z,20
2017-04-15T04:19:11.858Z,24
2017-04-15T04:20:11.598Z,24
2017-04-15T04:21:11.887Z,28
2017-04-15T04:22:11.912Z,28
2017-04-15T04:23:11.939Z,36
2017-04-15T04:24:11.639Z,40
2017-04-15T04:25:11.959Z,44
2017-04-15T04:26:11.977Z,44
2017-04-15T04:27:11.684Z,48
2017-04-15T04:28:12.019Z,52
2017-04-15T04:29:12.034Z,56
2017-04-15T04:30:12.048Z,68
2017-04-15T04:31:12.064Z,72
2017-04-15T04:32:12.084Z,72
2017-04-15T04:33:12.109Z,80
2017-04-15T04:34:12.120Z,84
2017-04-15T04:35:12.135Z,88
2017-04-15T04:36:12.148Z,92
2017-04-15T04:37:12.173Z,92
2017-04-15T04:38:12.189Z,96
2017-04-15T04:39:12.203Z,104
2017-04-15T04:40:12.220Z,108
2017-04-15T04:41:12.242Z,116
2017-04-15T04:42:12.263Z,120
2017-04-15T04:43:12.379Z,124
2017-04-15T04:44:12.294Z,128
2017-04-15T04:45:12.304Z,136
2017-04-15T04:46:12.008Z,140
2017-04-15T04:47:12.363Z,144
2017-04-15T04:48:12.362Z,152
2017-04-15T04:49:12.379Z,156
2017-04-15T04:50:12.389Z,164
2017-04-15T04:51:12.410Z,168
2017-04-15T04:52:12.430Z,176
2017-04-15T04:53:12.442Z,184
2017-04-15T04:54:12.152Z,192
2017-04-15T04:55:12.478Z,204
2017-04-15T04:56:12.491Z,216
2017-04-15T04:57:12.514Z,224
2017-04-15T04:58:12.535Z,232
2017-04-15T04:59:12.551Z,240
2017-04-15T05:00:12.571Z,252
2017-04-15T05:01:12.735Z,264
2017-04-15T05:02:12.602Z,276
2017-04-15T05:03:12.623Z,284
2017-04-15T05:04:12.645Z,292
2017-04-15T05:05:12.655Z,296
2017-04-15T05:06:12.673Z,304
2017-04-15T05:07:12.688Z,308
2017-04-15T05:08:12.713Z,312
2017-04-15T05:09:12.730Z,320
2017-04-15T05:10:12.742Z,324
2017-04-15T05:11:12.760Z,328
2017-04-15T05:12:12.793Z,340
2017-04-15T05:13:12.793Z,352
2017-04-15T05:14:12.818Z,360
2017-04-15T05:15:12.828Z,364
2017-04-15T05:16:12.844Z,372
2017-04-15T05:17:12.860Z,380
2017-04-15T05:18:12.901Z,384
2017-04-15T05:19:12.898Z,392
2017-04-15T05:20:12.604Z,404
2017-04-15T05:21:12.929Z,412
2017-04-15T05:22:12.951Z,424
2017-04-15T05:23:12.963Z,424
2017-04-15T05:24:12.994Z,432
2017-04-15T05:25:13.004Z,440
2017-04-15T05:26:12.700Z,452
2017-04-15T05:27:13.032Z,460
2017-04-15T05:28:13.058Z,468
2017-04-15T05:29:13.083Z,480
2017-04-15T05:30:13.089Z,496
2017-04-15T05:31:13.113Z,512
2017-04-15T05:32:13.243Z,528
2017-04-15T05:33:13.248Z,524
2017-04-15T05:34:13.417Z,516
2017-04-15T05:35:13.265Z,504
2017-04-15T05:36:13.274Z,484
2017-04-15T05:37:13.296Z,468
2017-04-15T05:38:12.911Z,464
2017-04-15T05:39:13.314Z,468
2017-04-15T05:40:12.968Z,484
2017-04-15T05:41:13.331Z,504
2017-04-15T05:42:13.635Z,516
2017-04-15T05:43:13.399Z,512
2017-04-15T05:44:13.408Z,500
2017-04-15T05:45:13.418Z,484
2017-04-15T05:46:13.415Z,480
2017-04-15T05:47:13.424Z,488
2017-04-15T05:48:13.085Z,500
2017-04-15T05:49:13.442Z,520
2017-04-15T05:50:13.291Z,540
2017-04-15T05:51:13.243Z,568
2017-04-15T05:52:13.575Z,608
2017-04-15T05:53:13.586Z,668
2017-04-15T05:54:13.538Z,712
2017-04-15T05:55:13.545Z,736
2017-04-15T05:56:13.545Z,740
2017-04-15T05:57:13.555Z,724
2017-04-15T05:58:13.262Z,716
2017-04-15T05:59:13.602Z,716
2017-04-15T06:00:13.601Z,716
2017-04-15T06:01:13.663Z,716
2017-04-15T06:02:13.423Z,716
2017-04-15T06:03:13.666Z,724
2017-04-15T06:04:13.681Z,740
2017-04-15T06:05:13.689Z,752
2017-04-15T06:06:13.803Z,752
2017-04-15T06:07:13.734Z,728
2017-04-15T06:08:13.748Z,720
2017-04-15T06:09:13.760Z,748
2017-04-15T06:10:13.528Z,780
2017-04-15T06:11:13.790Z,816
2017-04-15T06:12:13.813Z,856
2017-04-15T06:13:13.828Z,884
2017-04-15T06:14:13.848Z,884
2017-04-15T06:15:13.867Z,860
2017-04-15T06:16:13.881Z,852
2017-04-15T06:17:13.904Z,840
2017-04-15T06:18:13.917Z,820
2017-04-15T06:19:13.942Z,808
2017-04-15T06:20:13.355Z,808
2017-04-15T06:21:13.996Z,816
2017-04-15T06:22:13.679Z,828
2017-04-15T06:23:13.999Z,864
2017-04-15T06:24:14.017Z,896
2017-04-15T06:25:14.043Z,916
2017-04-15T06:26:14.051Z,948
2017-04-15T06:27:14.069Z,992
2017-04-15T06:28:14.089Z,1024
2017-04-15T06:29:14.106Z,1044
2017-04-15T06:30:14.124Z,1036
2017-04-15T06:31:14.143Z,1060
2017-04-15T06:32:13.844Z,1120
2017-04-15T06:33:14.179Z,1132
2017-04-15T06:34:14.199Z,1060
2017-04-15T06:35:14.214Z,924
2017-04-15T06:36:14.223Z,828
2017-04-15T06:37:14.252Z,788
2017-04-15T06:38:13.963Z,784
2017-04-15T06:39:14.369Z,784
2017-04-15T06:40:14.299Z,772
2017-04-15T06:41:14.322Z,768
2017-04-15T06:42:14.336Z,764
2017-04-15T06:43:14.364Z,764
2017-04-15T06:44:14.369Z,784
2017-04-15T06:45:14.386Z,828
2017-04-15T06:46:14.397Z,880
2017-04-15T06:47:14.420Z,928
2017-04-15T06:48:14.440Z,980
2017-04-15T06:49:14.464Z,1020
2017-04-15T06:50:14.169Z,1048
2017-04-15T06:51:14.498Z,1076
2017-04-15T06:52:14.190Z,1080
2017-04-15T06:53:14.528Z,1048
2017-04-15T06:54:14.666Z,1008
2017-04-15T06:55:14.568Z,980
2017-04-15T06:56:14.597Z,972
2017-04-15T06:57:14.594Z,992
2017-04-15T06:58:14.615Z,1028
2017-04-15T06:59:14.642Z,1108
2017-04-15T07:00:14.335Z,1220
2017-04-15T07:01:14.662Z,1416
2017-04-15T07:02:14.737Z,1672
2017-04-15T07:03:14.706Z,1880
2017-04-15T07:04:14.097Z,1928
2017-04-15T07:05:14.742Z,1876
2017-04-15T07:06:14.441Z,1740
2017-04-15T07:07:14.769Z,1568
2017-04-15T07:08:14.167Z,1492
2017-04-15T07:09:14.807Z,1484
2017-04-15T07:10:14.927Z,1496
2017-04-15T07:11:14.837Z,1504
2017-04-15T07:12:14.547Z,1432
2017-04-15T07:13:14.883Z,1328
2017-04-15T07:14:14.889Z,1248
2017-04-15T07:15:14.910Z,1260
2017-04-15T07:16:14.617Z,1188
2017-04-15T07:17:14.637Z,1184
2017-04-15T07:18:14.967Z,1148
2017-04-15T07:19:14.986Z,1156
2017-04-15T07:20:14.686Z,1128
2017-04-15T07:21:15.022Z,1032
2017-04-15T07:22:15.062Z,1056
2017-04-15T07:23:14.739Z,1208
2017-04-15T07:24:15.071Z,1392
2017-04-15T07:25:15.202Z,1416
2017-04-15T07:26:15.234Z,1312
2017-04-15T07:27:15.221Z,1168
2017-04-15T07:28:15.253Z,1100
2017-04-15T07:29:15.252Z,1360
2017-04-15T07:30:15.260Z,1400
2017-04-15T07:31:15.268Z,1416
2017-04-15T07:32:14.903Z,1512
2017-04-15T07:33:15.285Z,1432
2017-04-15T07:34:15.650Z,1384
2017-04-15T07:35:15.356Z,1356
2017-04-15T07:36:15.364Z,1424
2017-04-15T07:37:15.371Z,1392
2017-04-15T07:38:15.380Z,1332
2017-04-15T07:39:15.351Z,1284
2017-04-15T07:40:15.049Z,1184
2017-04-15T07:41:15.500Z,988
2017-04-15T07:42:15.251Z,876
2017-04-15T07:43:15.530Z,872
2017-04-15T07:44:15.431Z,840
2017-04-15T07:45:15.447Z,812
2017-04-15T07:46:15.160Z,932
2017-04-15T07:47:15.513Z,1032
2017-04-15T07:48:15.507Z,1024
2017-04-15T07:49:15.523Z,900
2017-04-15T07:50:15.539Z,848
2017-04-15T07:51:15.555Z,840
2017-04-15T07:52:15.585Z,836
2017-04-15T07:53:15.595Z,1012
2017-04-15T07:54:15.617Z,1092
2017-04-15T07:55:15.324Z,1140
2017-04-15T07:56:15.649Z,1200
2017-04-15T07:57:15.671Z,1344
2017-04-15T07:58:15.696Z,1324
2017-04-15T07:59:15.703Z,1380
2017-04-15T08:00:15.721Z,1608
2017-04-15T08:01:15.738Z,1620
2017-04-15T08:02:15.444Z,1736
2017-04-15T08:03:15.778Z,1824
2017-04-15T08:04:15.795Z,1836
2017-04-15T08:05:15.812Z,1724
2017-04-15T08:06:15.829Z,1684
2017-04-15T08:07:16.030Z,1704
2017-04-15T08:08:15.553Z,1764
2017-04-15T08:09:15.890Z,1828
2017-04-15T08:10:15.904Z,1912
2017-04-15T08:11:15.920Z,1908
2017-04-15T08:12:15.935Z,1980
2017-04-15T08:13:15.954Z,1968
2017-04-15T08:14:15.983Z,1824
2017-04-15T08:15:15.990Z,1764
2017-04-15T08:16:16.009Z,1752
2017-04-15T08:17:16.042Z,1768
2017-04-15T08:18:16.046Z,1872
2017-04-15T08:19:16.074Z,1924
2017-04-15T08:20:16.083Z,1872
2017-04-15T08:21:16.215Z,1812
2017-04-15T08:22:15.491Z,2032
2017-04-15T08:23:16.146Z,2068
2017-04-15T08:24:16.154Z,1816
2017-04-15T08:25:15.857Z,1624
2017-04-15T08:26:16.300Z,1396
2017-04-15T08:27:16.308Z,1444
2017-04-15T08:28:15.914Z,1332
2017-04-15T08:29:16.349Z,1276
2017-04-15T08:30:16.347Z,1432
2017-04-15T08:31:16.298Z,1664
2017-04-15T08:32:16.424Z,1724
2017-04-15T08:33:16.436Z,1536
2017-04-15T08:34:16.582Z,1536
2017-04-15T08:35:16.570Z,1640
2017-04-15T08:36:16.579Z,1752
2017-04-15T08:37:16.595Z,1844
2017-04-15T08:38:16.603Z,1640
2017-04-15T08:39:16.601Z,1468
2017-04-15T08:40:16.609Z,1476
2017-04-15T08:41:16.620Z,1616
2017-04-15T08:42:16.628Z,1876
2017-04-15T08:43:16.646Z,1788
2017-04-15T08:44:16.646Z,1380
2017-04-15T08:45:16.654Z,976
2017-04-15T08:46:16.706Z,856
2017-04-15T08:47:16.713Z,688
2017-04-15T08:48:16.931Z,692
2017-04-15T08:49:16.414Z,824
2017-04-15T08:50:16.728Z,1044
2017-04-15T08:51:16.740Z,940
2017-04-15T08:52:16.746Z,724
2017-04-15T08:53:16.773Z,660
2017-04-15T08:54:16.800Z,760
2017-04-15T08:55:16.616Z,936
2017-04-15T08:56:16.627Z,1392
2017-04-15T08:57:16.856Z,1664
2017-04-15T08:58:16.638Z,1892
2017-04-15T08:59:16.791Z,2188
2017-04-15T09:00:16.807Z,2356
2017-04-15T09:01:16.820Z,2276
2017-04-15T09:02:17.047Z,2204
2017-04-15T09:03:16.713Z,1960
2017-04-15T09:04:16.881Z,2168
2017-04-15T09:05:16.904Z,1736
2017-04-15T09:06:16.938Z,1372
2017-04-15T09:07:16.935Z,1488
2017-04-15T09:08:16.950Z,2004
2017-04-15T09:09:16.965Z,1936
2017-04-15T09:10:16.999Z,2180
2017-04-15T09:11:16.690Z,2064
2017-04-15T09:12:16.744Z,2036
2017-04-15T09:13:16.754Z,2184
2017-04-15T09:14:17.065Z,2432
2017-04-15T09:15:16.767Z,2648
2017-04-15T09:16:17.096Z,2668
2017-04-15T09:17:17.118Z,2700
2017-04-15T09:18:16.865Z,2700
2017-04-15T09:19:17.161Z,2740
2017-04-15T09:20:16.862Z,2780
2017-04-15T09:21:17.188Z,2596
2017-04-15T09:22:17.303Z,2232
2017-04-15T09:23:17.230Z,2152
2017-04-15T09:24:17.241Z,2080
2017-04-15T09:25:17.261Z,2136
2017-04-15T09:26:17.277Z,2112
2017-04-15T09:27:17.301Z,2016
2017-04-15T09:28:17.313Z,1776
2017-04-15T09:29:17.033Z,1620
2017-04-15T09:30:17.354Z,1372
2017-04-15T09:31:17.371Z,1316
2017-04-15T09:32:17.397Z,1544
2017-04-15T09:33:17.410Z,1780
2017-04-15T09:34:17.431Z,1948
2017-04-15T09:35:17.441Z,1948
2017-04-15T09:36:17.464Z,2048
2017-04-15T09:37:17.166Z,2216
2017-04-15T09:38:17.680Z,2312
2017-04-15T09:39:17.537Z,2360
2017-04-15T09:40:17.537Z,2184
2017-04-15T09:41:17.554Z,1944
2017-04-15T09:42:17.264Z,1920
2017-04-15T09:43:17.599Z,1744
2017-04-15T09:44:17.619Z,1688
2017-04-15T09:45:17.625Z,1764
2017-04-15T09:46:17.656Z,2052
2017-04-15T09:47:17.913Z,2028
2017-04-15T09:48:17.686Z,2372
2017-04-15T09:49:17.706Z,2608
2017-04-15T09:50:17.723Z,2564
2017-04-15T09:51:17.737Z,2328
2017-04-15T09:52:17.758Z,2560
2017-04-15T09:53:17.785Z,2724
2017-04-15T09:54:17.798Z,2748
2017-04-15T09:55:17.813Z,2952
2017-04-15T09:56:18.025Z,2744
2017-04-15T09:57:17.854Z,2352
2017-04-15T09:58:17.876Z,1624
2017-04-15T09:59:17.888Z,1444
2017-04-15T10:00:17.906Z,1464
2017-04-15T10:01:18.045Z,1672
2017-04-15T10:02:18.053Z,1380
2017-04-15T10:03:18.077Z,1208
2017-04-15T10:04:18.084Z,1368
2017-04-15T10:05:17.684Z,1268
2017-04-15T10:06:18.102Z,1052
2017-04-15T10:07:18.110Z,952
2017-04-15T10:08:18.148Z,864
2017-04-15T10:09:18.179Z,1028
2017-04-15T10:10:18.186Z,800
2017-04-15T10:11:18.196Z,688
2017-04-15T10:12:18.145Z,612
2017-04-15T10:13:18.304Z,664
2017-04-15T10:14:18.302Z,808
2017-04-15T10:15:18.304Z,936
2017-04-15T10:16:18.304Z,884
2017-04-15T10:17:18.320Z,888
2017-04-15T10:18:18.478Z,956
2017-04-15T10:19:18.484Z,780
2017-04-15T10:20:18.494Z,876
2017-04-15T10:21:18.643Z,904
2017-04-15T10:22:18.463Z,788
2017-04-15T10:23:18.467Z,616
2017-04-15T10:24:18.477Z,572
2017-04-15T10:25:18.487Z,592
2017-04-15T10:26:18.494Z,700
2017-04-15T10:27:18.197Z,648
2017-04-15T10:28:18.634Z,596
2017-04-15T10:29:18.643Z,616
2017-04-15T10:30:18.658Z,728
2017-04-15T10:31:18.668Z,708
2017-04-15T10:32:18.281Z,708
2017-04-15T10:33:18.613Z,972
2017-04-15T10:34:18.436Z,956
2017-04-15T10:35:18.451Z,700
2017-04-15T10:36:18.667Z,712
2017-04-15T10:37:18.460Z,596
2017-04-15T10:38:18.669Z,624
2017-04-15T10:39:18.733Z,748
2017-04-15T10:40:18.687Z,684
2017-04-15T10:41:18.495Z,664
2017-04-15T10:42:18.695Z,632
2017-04-15T10:43:18.705Z,688
2017-04-15T10:44:18.787Z,680
2017-04-15T10:45:18.777Z,652
2017-04-15T10:46:18.823Z,592
2017-04-15T10:47:18.784Z,568
2017-04-15T10:48:18.568Z,524
2017-04-15T10:49:18.820Z,500
2017-04-15T10:50:18.846Z,488
2017-04-15T10:51:18.635Z,476
2017-04-15T10:52:18.875Z,504
2017-04-15T10:53:18.897Z,536
2017-04-15T10:54:18.912Z,584
2017-04-15T10:55:18.933Z,596
2017-04-15T10:56:18.641Z,644
2017-04-15T10:57:18.965Z,656
2017-04-15T10:58:18.698Z,560
2017-04-15T10:59:18.698Z,592
2017-04-15T11:00:19.025Z,600
2017-04-15T11:01:19.042Z,640
2017-04-15T11:02:19.069Z,716
2017-04-15T11:03:19.080Z,696
2017-04-15T11:04:19.482Z,716
2017-04-15T11:05:19.121Z,628
2017-04-15T11:06:19.153Z,708
2017-04-15T11:07:19.156Z,864
2017-04-15T11:08:18.870Z,956
2017-04-15T11:09:19.190Z,752
2017-04-15T11:10:19.402Z,680
2017-04-15T11:11:19.235Z,776
2017-04-15T11:12:19.259Z,812
2017-04-15T11:13:19.276Z,748
2017-04-15T11:14:19.281Z,824
2017-04-15T11:15:19.301Z,788
2017-04-15T11:16:19.317Z,768
2017-04-15T11:17:19.335Z,740
2017-04-15T11:18:19.349Z,812
2017-04-15T11:19:19.387Z,892
2017-04-15T11:20:19.075Z,868
2017-04-15T11:21:19.412Z,764
2017-04-15T11:22:19.434Z,700
2017-04-15T11:23:19.451Z,720
2017-04-15T11:24:19.163Z,960
2017-04-15T11:25:19.481Z,956
2017-04-15T11:26:19.511Z,988
2017-04-15T11:27:19.475Z,1188
2017-04-15T11:28:19.539Z,988
2017-04-15T11:29:19.556Z,988
2017-04-15T11:30:19.627Z,1112
2017-04-15T11:31:19.598Z,948
2017-04-15T11:32:19.608Z,928
2017-04-15T11:33:19.637Z,944
2017-04-15T11:34:19.339Z,948
2017-04-15T11:35:19.664Z,796
2017-04-15T11:36:19.686Z,908
2017-04-15T11:37:19.077Z,716
2017-04-15T11:38:19.410Z,744
2017-04-15T11:39:19.740Z,984
2017-04-15T11:40:19.754Z,892
2017-04-15T11:41:19.471Z,888
2017-04-15T11:42:19.790Z,1040
2017-04-15T11:43:19.810Z,904
2017-04-15T11:44:19.829Z,900
2017-04-15T11:45:19.541Z,816
2017-04-15T11:46:19.866Z,904
2017-04-15T11:47:19.888Z,716
2017-04-15T11:48:19.901Z,564
2017-04-15T11:49:19.933Z,624
2017-04-15T11:50:19.937Z,1032
2017-04-15T11:51:19.956Z,956
2017-04-15T11:52:19.661Z,676
2017-04-15T11:53:19.682Z,860
2017-04-15T11:54:20.013Z,984
2017-04-15T11:55:20.028Z,992
2017-04-15T11:56:20.057Z,836
2017-04-15T11:57:20.070Z,996
2017-04-15T11:58:20.091Z,788
2017-04-15T11:59:20.112Z,524
2017-04-15T12:00:20.185Z,584
2017-04-15T12:01:20.145Z,664
2017-04-15T12:02:20.167Z,808
2017-04-15T12:03:20.309Z,668
2017-04-15T12:04:20.312Z,856
2017-04-15T12:05:20.372Z,948
2017-04-15T12:06:20.346Z,688
2017-04-15T12:07:19.635Z,552
2017-04-15T12:08:20.660Z,604
2017-04-15T12:09:20.057Z,572
2017-04-15T12:10:20.379Z,636
2017-04-15T12:11:20.379Z,908
2017-04-15T12:12:20.032Z,608
2017-04-15T12:13:20.049Z,868
2017-04-15T12:14:20.072Z,888
2017-04-15T12:15:20.417Z,868
2017-04-15T12:16:20.473Z,936
2017-04-15T12:17:19.807Z,868
2017-04-15T12:18:20.490Z,960
2017-04-15T12:19:20.163Z,948
2017-04-15T12:20:20.609Z,1000
2017-04-15T12:21:20.605Z,984
2017-04-15T12:22:20.334Z,916
2017-04-15T12:23:20.646Z,884
2017-04-15T12:24:20.666Z,796
2017-04-15T12:25:20.680Z,768
2017-04-15T12:26:20.830Z,800
2017-04-15T12:27:20.076Z,800
2017-04-15T12:28:20.761Z,808
2017-04-15T12:29:20.448Z,800
2017-04-15T12:30:20.472Z,812
2017-04-15T12:31:20.904Z,752
2017-04-15T12:32:20.603Z,904
2017-04-15T12:33:20.924Z,1004
2017-04-15T12:34:20.961Z,1052
2017-04-15T12:35:20.959Z,1704
2017-04-15T12:36:20.666Z,1872
2017-04-15T12:37:19.953Z,2352
2017-04-15T12:38:20.582Z,1776
2017-04-15T12:39:20.928Z,1804
2017-04-15T12:40:20.623Z,1948
2017-04-15T12:41:21.071Z,1868
2017-04-15T12:42:21.045Z,2112
2017-04-15T12:43:20.992Z,1892
2017-04-15T12:44:20.995Z,1660
2017-04-15T12:45:20.993Z,1264
2017-04-15T12:46:20.694Z,1524
2017-04-15T12:47:20.499Z,1620
2017-04-15T12:48:20.510Z,1312
2017-04-15T12:49:21.049Z,1420
2017-04-15T12:50:20.734Z,1484
2017-04-15T12:51:21.064Z,1172
2017-04-15T12:52:21.086Z,1292
2017-04-15T12:53:21.115Z,1548
2017-04-15T12:54:20.815Z,1156
2017-04-15T12:55:21.148Z,1912
2017-04-15T12:56:21.160Z,2164
2017-04-15T12:57:21.176Z,1992
2017-04-15T12:58:21.341Z,1772
2017-04-15T12:59:21.218Z,1644
2017-04-15T13:00:21.228Z,1812
2017-04-15T13:01:20.935Z,1764
2017-04-15T13:02:21.267Z,1272
2017-04-15T13:03:21.291Z,776
2017-04-15T13:04:21.307Z,516
2017-04-15T13:05:21.321Z,412
2017-04-15T13:06:21.033Z,492
2017-04-15T13:07:21.048Z,1648
2017-04-15T13:08:21.388Z,624
2017-04-15T13:09:21.416Z,688
2017-04-15T13:10:21.425Z,932
2017-04-15T13:11:21.180Z,1424
2017-04-15T13:12:21.466Z,1168
2017-04-15T13:13:21.484Z,480
2017-04-15T13:14:21.495Z,540
2017-04-15T13:15:21.513Z,580
2017-04-15T13:16:21.538Z,452
2017-04-15T13:17:21.559Z,480
2017-04-15T13:18:21.574Z,392
2017-04-15T13:19:21.593Z,364
2017-04-15T13:20:21.607Z,276
2017-04-15T13:21:21.628Z,364
2017-04-15T13:22:21.644Z,964
2017-04-15T13:23:21.657Z,2348
2017-04-15T13:24:21.679Z,2768
2017-04-15T13:25:21.702Z,2600
2017-04-15T13:26:21.718Z,2940
2017-04-15T13:27:21.739Z,3540
2017-04-15T13:28:21.757Z,3500
2017-04-15T13:29:21.771Z,3300
2017-04-15T13:30:21.790Z,3504
2017-04-15T13:31:21.808Z,3536
2017-04-15T13:32:21.829Z,3344
2017-04-15T13:33:21.532Z,3796
2017-04-15T13:34:21.557Z,3384
2017-04-15T13:35:21.885Z,3052
2017-04-15T13:36:21.909Z,3848
2017-04-15T13:37:21.923Z,3848
2017-04-15T13:38:21.638Z,3536
2017-04-15T13:39:21.964Z,3084
2017-04-15T13:40:21.978Z,2064
2017-04-15T13:41:22.006Z,2156
2017-04-15T13:42:22.018Z,2616
2017-04-15T13:43:22.035Z,2004
2017-04-15T13:44:22.059Z,2992
2017-04-15T13:45:22.087Z,3352
2017-04-15T13:46:22.096Z,2424
2017-04-15T13:47:21.806Z,2212
2017-04-15T13:48:22.141Z,3036
2017-04-15T13:49:22.153Z,1844
2017-04-15T13:50:22.175Z,1364
2017-04-15T13:51:22.197Z,1236
2017-04-15T13:52:22.212Z,1712
2017-04-15T13:53:22.233Z,2220
2017-04-15T13:54:22.264Z,1908
2017-04-15T13:55:22.271Z,1756